Polynesia — A8RO9 — position and weather

sailwx.info

Track history (hours):
 
Tides and Currents Weather Stations Pressure Air Temp Water Temp Dewpoint Dewpoint Depression Visibility Wind Speed Wind Dir Waves Ship Positions

Polynesia

Last reported at 2018-Jan-28 02:45 UTC. Time now 2018-Feb-25 23:33 UTC.
Position N 19°12' W 095°44'.
Warning: this ship's position is 28 days out of date.

Length 161 m; draft 8.8 m.

Type: Ship (hazmat cat A). MMSI: 636091690.

Date/timePositionNaut miles runAvg speedWind from/ knotsBaromVisibWave heightAir tempDewpointWater temp
2018-Jan-28 02:45N 19°12' W 095°44'415.5
2018-Jan-28 02:30N 19°12' W 095°48'816.0
2018-Jan-28 02:00N 19°12' W 095°56'715.3
2018-Jan-28 01:30N 19°11' W 096°04'4 7.7
2018-Jan-28 01:00N 19°13' W 096°08'0 0.3
2018-Jan-28 00:30N 19°13' W 096°08'0 0.0
2018-Jan-28 00:00N 19°13' W 096°08'0 0.0
2018-Jan-27 23:24N 19°13' W 096°08'0 0.0
2018-Jan-27 23:00N 19°13' W 096°08'0 0.0
2018-Jan-27 22:27N 19°13' W 096°08'0 0.0
2018-Jan-27 22:00N 19°13' W 096°08'0 0.0
2018-Jan-27 21:30N 19°13' W 096°08'0 0.0
2018-Jan-27 20:57N 19°13' W 096°08'0 0.0
2018-Jan-27 20:30N 19°13' W 096°08'0 0.0
2018-Jan-27 20:00N 19°13' W 096°08'0 0.0
2018-Jan-27 19:30N 19°13' W 096°08'0 0.0
2018-Jan-27 19:00N 19°13' W 096°08'0 0.0
2018-Jan-27 18:30N 19°13' W 096°08'0 0.0
2018-Jan-27 18:00N 19°13' W 096°08'0 0.0
2018-Jan-27 17:30N 19°13' W 096°08'0 0.0
2018-Jan-27 17:00N 19°13' W 096°08'0 0.0
2018-Jan-27 16:30N 19°13' W 096°08'0 0.0
2018-Jan-27 16:00N 19°13' W 096°08'0 0.0
2018-Jan-27 15:24N 19°13' W 096°08'0 0.0
2018-Jan-27 15:00N 19°13' W 096°08'0 0.0
2018-Jan-27 14:30N 19°13' W 096°08'0 0.0
2018-Jan-27 13:54N 19°13' W 096°08'0 0.0
2018-Jan-27 13:30N 19°13' W 096°08'0 0.0
2018-Jan-27 13:00N 19°13' W 096°08'0 0.0
2018-Jan-27 12:30N 19°13' W 096°08'0 0.0
2018-Jan-27 12:00N 19°13' W 096°08'0 0.0
2018-Jan-27 11:30N 19°13' W 096°08'0 0.0
2018-Jan-27 10:57N 19°13' W 096°08'0 0.0
2018-Jan-27 10:30N 19°13' W 096°08'1 1.0
2018-Jan-27 10:00N 19°12' W 096°08'4 7.3
2018-Jan-27 09:30N 19°12' W 096°04'4 7.3
2018-Jan-27 09:00N 19°09' W 096°01'2 3.0
2018-Jan-27 08:27N 19°08' W 096°00'0 0.0
2018-Jan-27 07:57N 19°08' W 096°00'0 0.1
2018-Jan-27 07:27N 19°08' W 096°00'0 0.1
2018-Jan-27 06:57N 19°08' W 096°00'0 0.0
2018-Jan-27 06:21N 19°08' W 096°00'0 0.1
2018-Jan-27 05:57N 19°08' W 096°00'0 0.0
2018-Jan-27 05:15N 19°08' W 096°00'0 0.1
2018-Jan-27 04:57N 19°08' W 095°60'0 0.0
2018-Jan-27 04:21N 19°08' W 096°00'0 0.0
2018-Jan-27 03:57N 19°08' W 096°00'0 0.0
2018-Jan-27 03:27N 19°08' W 096°00'0 0.1
2018-Jan-27 02:57N 19°08' W 096°00'0 0.0
2018-Jan-27 02:27N 19°08' W 095°60'0 0.1
2018-Jan-27 01:57N 19°08' W 096°00'0 0.1
2018-Jan-27 01:27N 19°08' W 096°00'0 0.0
2018-Jan-27 00:57N 19°08' W 096°00'0 0.1
2018-Jan-27 00:27N 19°08' W 096°00'0 0.1
2018-Jan-26 23:51N 19°08' W 096°00'0 0.1
2018-Jan-26 23:27N 19°08' W 096°00'0 0.0
2018-Jan-26 22:57N 19°08' W 096°00'0 0.1
2018-Jan-26 22:27N 19°08' W 096°00'0 0.1
2018-Jan-26 21:45N 19°08' W 096°00'0 0.0
2018-Jan-26 21:27N 19°08' W 096°00'0 0.1
2018-Jan-26 20:57N 19°08' W 096°00'0 0.1
2018-Jan-26 20:27N 19°08' W 096°00'0 0.1
2018-Jan-26 19:57N 19°08' W 096°00'0 0.1
2018-Jan-26 19:15N 19°08' W 095°60'0 0.0
2018-Jan-26 17:51N 19°08' W 095°60'0 0.0
2018-Jan-26 17:27N 19°08' W 095°60'0 0.0
2018-Jan-26 16:51N 19°08' W 095°60'0 0.0
2018-Jan-26 16:21N 19°08' W 095°60'0 0.0
2018-Jan-26 16:00N 19°08' W 095°60'0 0.0
2018-Jan-26 15:31N 19°08' W 096°00'1 2.4
2018-Jan-26 15:01N 19°09' W 096°01'5 9.8
2018-Jan-26 14:30N 19°12' W 095°57'1013.7
2018-Jan-26 13:46N 19°15' W 095°46'414.5
2018-Jan-26 13:29N 19°18' W 095°43'3 5.2
2018-Jan-26 13:00N 19°21' W 095°43'4 1.3
2018-Jan-26 10:11N 19°17' W 095°44'1 2.8
2018-Jan-26 10:00N 19°17' W 095°44'2 2.8
2018-Jan-26 09:25N 19°19' W 095°44'4 2.8
2018-Jan-26 08:02N 19°23' W 095°45'0 2.7
2018-Jan-26 08:00N 19°23' W 095°45'2 2.9
2018-Jan-26 07:25N 19°24' W 095°46'3 1.7
2018-Jan-26 05:56N 19°24' W 095°48'2 5.0
2018-Jan-26 05:28N 19°23' W 095°50'612.3
2018-Jan-26 05:00N 19°21' W 095°56'612.8
2018-Jan-26 04:30N 19°24' W 096°02'815.5
2018-Jan-26 03:59N 19°32' W 096°05'1615.9
2018-Jan-26 02:58N 19°47' W 096°12'  
Track history (hours):
 
Tides and Currents Weather Stations Pressure Air Temp Water Temp Dewpoint Dewpoint Depression Visibility Wind Speed Wind Dir Waves Ship Positions

Polynesia

Last reported at 2018-Jan-28 02:45 UTC. Time now 2018-Feb-25 23:33 UTC.
Position N 19°12' W 095°44'.
Warning: this ship's position is 28 days out of date.

Length 161 m; draft 8.8 m.

Type: Ship (hazmat cat A). MMSI: 636091690.

Date/timePositionNaut miles runAvg speedWind from/ knotsBaromVisibWave heightAir tempDewpointWater temp
2018-Jan-28 02:45N 19°12' W 095°44'415.5
2018-Jan-28 02:30N 19°12' W 095°48'816.0
2018-Jan-28 02:00N 19°12' W 095°56'715.3
2018-Jan-28 01:30N 19°11' W 096°04'4 7.7
2018-Jan-28 01:00N 19°13' W 096°08'0 0.3
2018-Jan-28 00:30N 19°13' W 096°08'0 0.0
2018-Jan-28 00:00N 19°13' W 096°08'0 0.0
2018-Jan-27 23:24N 19°13' W 096°08'0 0.0
2018-Jan-27 23:00N 19°13' W 096°08'0 0.0
2018-Jan-27 22:27N 19°13' W 096°08'0 0.0
2018-Jan-27 22:00N 19°13' W 096°08'0 0.0
2018-Jan-27 21:30N 19°13' W 096°08'0 0.0
2018-Jan-27 20:57N 19°13' W 096°08'0 0.0
2018-Jan-27 20:30N 19°13' W 096°08'0 0.0
2018-Jan-27 20:00N 19°13' W 096°08'0 0.0
2018-Jan-27 19:30N 19°13' W 096°08'0 0.0
2018-Jan-27 19:00N 19°13' W 096°08'0 0.0
2018-Jan-27 18:30N 19°13' W 096°08'0 0.0
2018-Jan-27 18:00N 19°13' W 096°08'0 0.0
2018-Jan-27 17:30N 19°13' W 096°08'0 0.0
2018-Jan-27 17:00N 19°13' W 096°08'0 0.0
2018-Jan-27 16:30N 19°13' W 096°08'0 0.0
2018-Jan-27 16:00N 19°13' W 096°08'0 0.0
2018-Jan-27 15:24N 19°13' W 096°08'0 0.0
2018-Jan-27 15:00N 19°13' W 096°08'0 0.0
2018-Jan-27 14:30N 19°13' W 096°08'0 0.0
2018-Jan-27 13:54N 19°13' W 096°08'0 0.0
2018-Jan-27 13:30N 19°13' W 096°08'0 0.0
2018-Jan-27 13:00N 19°13' W 096°08'0 0.0
2018-Jan-27 12:30N 19°13' W 096°08'0 0.0
2018-Jan-27 12:00N 19°13' W 096°08'0 0.0
2018-Jan-27 11:30N 19°13' W 096°08'0 0.0
2018-Jan-27 10:57N 19°13' W 096°08'0 0.0
2018-Jan-27 10:30N 19°13' W 096°08'1 1.0
2018-Jan-27 10:00N 19°12' W 096°08'4 7.3
2018-Jan-27 09:30N 19°12' W 096°04'4 7.3
2018-Jan-27 09:00N 19°09' W 096°01'2 3.0
2018-Jan-27 08:27N 19°08' W 096°00'0 0.0
2018-Jan-27 07:57N 19°08' W 096°00'0 0.1
2018-Jan-27 07:27N 19°08' W 096°00'0 0.1
2018-Jan-27 06:57N 19°08' W 096°00'0 0.0
2018-Jan-27 06:21N 19°08' W 096°00'0 0.1
2018-Jan-27 05:57N 19°08' W 096°00'0 0.0
2018-Jan-27 05:15N 19°08' W 096°00'0 0.1
2018-Jan-27 04:57N 19°08' W 095°60'0 0.0
2018-Jan-27 04:21N 19°08' W 096°00'0 0.0
2018-Jan-27 03:57N 19°08' W 096°00'0 0.0
2018-Jan-27 03:27N 19°08' W 096°00'0 0.1
2018-Jan-27 02:57N 19°08' W 096°00'0 0.0
2018-Jan-27 02:27N 19°08' W 095°60'0 0.1
2018-Jan-27 01:57N 19°08' W 096°00'0 0.1
2018-Jan-27 01:27N 19°08' W 096°00'0 0.0
2018-Jan-27 00:57N 19°08' W 096°00'0 0.1
2018-Jan-27 00:27N 19°08' W 096°00'0 0.1
2018-Jan-26 23:51N 19°08' W 096°00'0 0.1
2018-Jan-26 23:27N 19°08' W 096°00'0 0.0
2018-Jan-26 22:57N 19°08' W 096°00'0 0.1
2018-Jan-26 22:27N 19°08' W 096°00'0 0.1
2018-Jan-26 21:45N 19°08' W 096°00'0 0.0
2018-Jan-26 21:27N 19°08' W 096°00'0 0.1
2018-Jan-26 20:57N 19°08' W 096°00'0 0.1
2018-Jan-26 20:27N 19°08' W 096°00'0 0.1
2018-Jan-26 19:57N 19°08' W 096°00'0 0.1
2018-Jan-26 19:15N 19°08' W 095°60'0 0.0
2018-Jan-26 17:51N 19°08' W 095°60'0 0.0
2018-Jan-26 17:27N 19°08' W 095°60'0 0.0
2018-Jan-26 16:51N 19°08' W 095°60'0 0.0
2018-Jan-26 16:21N 19°08' W 095°60'0 0.0
2018-Jan-26 16:00N 19°08' W 095°60'0 0.0
2018-Jan-26 15:31N 19°08' W 096°00'1 2.4
2018-Jan-26 15:01N 19°09' W 096°01'5 9.8
2018-Jan-26 14:30N 19°12' W 095°57'1013.7
2018-Jan-26 13:46N 19°15' W 095°46'414.5
2018-Jan-26 13:29N 19°18' W 095°43'3 5.2
2018-Jan-26 13:00N 19°21' W 095°43'4 1.3
2018-Jan-26 10:11N 19°17' W 095°44'1 2.8
2018-Jan-26 10:00N 19°17' W 095°44'2 2.8
2018-Jan-26 09:25N 19°19' W 095°44'4 2.8
2018-Jan-26 08:02N 19°23' W 095°45'0 2.7
2018-Jan-26 08:00N 19°23' W 095°45'2 2.9
2018-Jan-26 07:25N 19°24' W 095°46'3 1.7
2018-Jan-26 05:56N 19°24' W 095°48'2 5.0
2018-Jan-26 05:28N 19°23' W 095°50'612.3
2018-Jan-26 05:00N 19°21' W 095°56'612.8
2018-Jan-26 04:30N 19°24' W 096°02'815.5
2018-Jan-26 03:59N 19°32' W 096°05'1615.9
2018-Jan-26 02:58N 19°47' W 096°12'  

Dump ship's entire track history